Time;durP1;ratioP1;P1;durP2;ratioP2;P2;SDS_P1;SDS_P2;PMS_P1;PMS_P2;Temp;Humidity;BMP_temperature;BMP_pressure;BME280_temperature;BME280_humidity;BME280_pressure;Samples;Min_cycle;Max_cycle;Signal;HPM_P1;HPM_P2
2023/08/23 00:01:23;;;;;;;;;4.25;3.25;;;;;24.15;52.33;101300.22;6213153;22;45315;-81
2023/08/23 00:03:48;;;;;;;;;5.00;2.00;;;;;24.24;52.33;101330.06;6212815;22;54918;-82
2023/08/23 00:06:13;;;;;;;;;3.25;3.25;;;;;24.11;52.01;101306.00;6212331;22;45373;-81
2023/08/23 00:08:38;;;;;;;;;2.25;2.25;;;;;24.14;52.03;101318.41;6211659;22;50055;-83
2023/08/23 00:11:04;;;;;;;;;3.75;2.75;;;;;24.00;51.93;101289.94;6184357;22;51701;-82
2023/08/23 00:13:29;;;;;;;;;6.50;5.25;;;;;24.07;52.16;101312.72;6213592;22;45520;-81
2023/08/23 00:15:54;;;;;;;;;3.75;2.00;;;;;23.80;51.89;101274.78;6212920;22;45336;-82
2023/08/23 00:18:20;;;;;;;;;4.00;3.00;;;;;23.94;52.09;101309.53;6213052;22;45660;-82
2023/08/23 00:20:45;;;;;;;;;1.75;1.75;;;;;23.69;52.83;101277.72;6213142;22;45161;-82
2023/08/23 00:23:10;;;;;;;;;2.00;2.00;;;;;23.92;52.10;101305.28;6213203;22;45132;-82
2023/08/23 00:25:36;;;;;;;;;2.00;1.00;;;;;23.71;52.53;101279.28;6211263;22;62443;-82
2023/08/23 00:28:01;;;;;;;;;2.00;2.00;;;;;23.80;52.61;101307.38;6213310;22;59761;-83
2023/08/23 00:30:26;;;;;;;;;1.50;1.25;;;;;23.82;52.23;101297.19;6213672;22;56467;-81
2023/08/23 00:32:51;;;;;;;;;1.00;1.00;;;;;23.82;52.29;101299.91;6187364;22;45173;-82
2023/08/23 00:35:17;;;;;;;;;2.75;1.00;;;;;23.80;52.34;101286.50;6214456;22;45578;-82
2023/08/23 00:37:42;;;;;;;;;0.50;0.50;;;;;23.78;52.66;101282.22;6216000;22;45106;-82
2023/08/23 00:40:09;;;;;;;;;1.00;1.00;;;;;23.73;52.69;101279.13;6213321;22;53166;-82
2023/08/23 00:42:35;;;;;;;;;2.50;2.50;;;;;23.75;52.08;101282.56;6186557;22;45170;-82
2023/08/23 00:45:00;;;;;;;;;3.00;3.00;;;;;23.47;52.23;101243.72;6186232;22;48394;-82
2023/08/23 00:47:26;;;;;;;;;2.00;1.00;;;;;23.56;52.28;101267.19;6213684;22;45376;-83
2023/08/23 00:49:52;;;;;;;;;1.50;0.75;;;;;23.44;52.49;101242.16;6187207;22;45366;-83
2023/08/23 00:52:17;;;;;;;;;2.00;2.00;;;;;23.49;52.53;101257.97;6214064;22;45252;-82
2023/08/23 00:54:44;;;;;;;;;1.50;1.00;;;;;23.51;52.29;101270.38;6213228;22;45316;-83
2023/08/23 00:57:10;;;;;;;;;1.75;1.00;;;;;23.49;53.00;101261.56;6213380;22;45343;-83
2023/08/23 00:59:36;;;;;;;;;3.00;1.00;;;;;23.45;52.73;101260.16;6213728;22;45181;-82
2023/08/23 01:02:02;;;;;;;;;1.50;0.75;;;;;23.35;52.93;101245.78;6213796;22;45210;-82
2023/08/23 01:04:27;;;;;;;;;2.00;1.00;;;;;23.46;52.53;101259.16;6213204;22;45993;-82
2023/08/23 01:07:12;;;;;;;;;2.00;2.00;;;;;23.46;52.80;101261.00;6213806;22;45198;-83
2023/08/23 01:09:54;;;;;;;;;1.75;1.75;;;;;23.42;53.16;101255.00;6244219;22;45246;-82
2023/08/23 01:12:34;;;;;;;;;1.00;1.00;;;;;23.28;53.21;101235.69;6244375;22;45335;-82
2023/08/23 01:15:07;;;;;;;;;1.00;1.00;;;;;23.34;53.43;101257.66;6244175;22;45264;-83
2023/08/23 01:17:34;;;;;;;;;1.75;1.75;;;;;23.28;53.12;101252.81;6243447;22;45164;-82
2023/08/23 01:20:01;;;;;;;;;1.00;1.00;;;;;23.23;53.37;101253.28;6243705;22;45276;-82
2023/08/23 01:22:29;;;;;;;;;1.00;0.50;;;;;23.17;53.18;101253.03;6244808;22;45585;-81
2023/08/23 01:24:55;;;;;;;;;2.00;2.00;;;;;23.13;53.53;101257.06;6244121;22;46484;-83
2023/08/23 01:27:21;;;;;;;;;2.75;0.75;;;;;23.09;53.54;101259.22;6243883;22;45128;-82
2023/08/23 01:29:47;;;;;;;;;1.50;0.75;;;;;23.09;53.62;101255.66;6244250;22;45299;-82
2023/08/23 01:32:31;;;;;;;;;1.75;1.75;;;;;23.08;53.61;101272.94;6216641;22;45504;-82
2023/08/23 01:35:05;;;;;;;;;0.50;0.50;;;;;23.01;54.28;101255.53;6244995;22;46075;-83
2023/08/23 01:37:32;;;;;;;;;3.25;1.25;;;;;22.93;54.76;101265.31;6244463;22;45260;-83
2023/08/23 01:40:00;;;;;;;;;2.00;2.00;;;;;22.89;54.56;101257.59;6244405;22;45430;-83
2023/08/23 01:42:26;;;;;;;;;3.00;3.00;;;;;22.79;54.62;101246.78;6244042;22;45418;-83
2023/08/23 01:44:51;;;;;;;;;1.25;1.25;;;;;22.83;54.83;101259.06;6243914;22;45406;-81
2023/08/23 01:47:17;;;;;;;;;1.00;1.00;;;;;22.72;54.69;101237.53;6216501;22;45343;-83
2023/08/23 01:49:43;;;;;;;;;2.75;2.75;;;;;22.63;54.46;101231.13;6243992;22;45924;-81
2023/08/23 01:52:08;;;;;;;;;1.00;1.00;;;;;22.66;54.46;101238.97;6244264;22;45360;-82
2023/08/23 01:54:33;;;;;;;;;4.25;2.00;;;;;22.75;54.70;101253.47;6216220;22;47252;-82
2023/08/23 01:56:59;;;;;;;;;2.33;1.00;;;;;22.64;54.81;101237.41;6243047;22;54610;-82
2023/08/23 01:59:24;;;;;;;;;2.33;2.33;;;;;22.58;54.90;101228.00;6244157;22;45409;-83
2023/08/23 02:01:49;;;;;;;;;5.00;2.33;;;;;22.55;54.74;101219.34;6244518;22;45468;-82
2023/08/23 02:04:17;;;;;;;;;7.33;7.33;;;;;22.43;54.92;101201.53;6243852;22;45980;-82
2023/08/23 02:06:44;;;;;;;;;0.75;0.75;;;;;22.52;55.14;101227.72;6243969;22;45351;-82
2023/08/23 02:09:09;;;;;;;;;1.50;1.50;;;;;22.63;55.26;101238.41;6216869;22;45310;-81
2023/08/23 02:11:36;;;;;;;;;1.00;1.00;;;;;22.55;55.53;101232.88;6220309;22;45194;-82
2023/08/23 02:14:02;;;;;;;;;1.00;0.75;;;;;22.40;55.48;101207.22;6219728;22;45378;-82
2023/08/23 02:16:28;;;;;;;;;3.00;3.00;;;;;22.52;55.45;101227.72;6215051;22;45197;-82
2023/08/23 02:18:54;;;;;;;;;0.75;0.75;;;;;22.53;55.24;101224.06;6215977;22;45189;-82
2023/08/23 02:21:19;;;;;;;;;2.67;2.67;;;;;22.31;55.53;101199.00;6217309;22;45442;-82
2023/08/23 02:23:44;;;;;;;;;2.00;1.33;;;;;22.45;55.98;101224.78;6219916;22;46126;-80
2023/08/23 02:26:09;;;;;;;;;3.00;1.00;;;;;22.44;55.73;101222.22;6224226;22;45386;-80
2023/08/23 02:28:35;;;;;;;;;2.67;2.67;;;;;22.24;55.86;101197.88;6229811;22;45375;-81
2023/08/23 02:31:03;;;;;;;;;1.50;1.50;;;;;22.41;56.29;101228.78;6206704;22;45267;-81
2023/08/23 02:33:29;;;;;;;;;0.75;0.75;;;;;22.33;56.10;101224.09;6226247;22;45280;-81
2023/08/23 02:35:54;;;;;;;;;2.67;2.67;;;;;22.35;56.09;101230.22;6192760;22;45260;-80
2023/08/23 02:38:20;;;;;;;;;1.50;1.50;;;;;22.34;56.19;101220.38;6221132;22;45221;-81
2023/08/23 02:40:45;;;;;;;;;1.00;1.00;;;;;22.19;56.13;101200.19;6217995;22;46542;-83
2023/08/23 02:43:10;;;;;;;;;5.00;2.00;;;;;22.31;56.18;101230.66;6214029;22;63800;-81
2023/08/23 02:45:40;;;;;;;;;1.00;1.00;;;;;22.18;56.68;101214.72;6213910;22;45391;-82
2023/08/23 02:48:07;;;;;;;;;3.50;3.00;;;;;22.29;56.54;101241.66;6185766;22;45309;-81
2023/08/23 02:50:32;;;;;;;;;4.00;2.33;;;;;22.21;56.30;101222.56;6213437;22;45230;-80
2023/08/23 02:52:57;;;;;;;;;1.00;1.00;;;;;22.10;56.64;101201.03;6213605;22;45265;-82
2023/08/23 02:55:23;;;;;;;;;0.50;0.50;;;;;22.17;56.37;101218.44;6213540;22;45323;-81
2023/08/23 02:57:48;;;;;;;;;1.50;1.50;;;;;22.18;56.67;101236.41;6213317;22;55033;-81
2023/08/23 03:00:14;;;;;;;;;2.33;1.00;;;;;22.16;56.78;101230.28;6213574;22;45415;-81
2023/08/23 03:02:39;;;;;;;;;1.67;1.67;;;;;22.16;56.82;101238.41;6212344;22;47436;-80
2023/08/23 03:05:05;;;;;;;;;1.33;1.33;;;;;22.13;56.89;101233.25;6213166;22;45165;-82
2023/08/23 03:07:30;;;;;;;;;1.75;1.75;;;;;22.13;57.37;101233.25;6186978;22;45293;-81
2023/08/23 03:09:55;;;;;;;;;6.75;5.25;;;;;21.96;57.30;101204.16;6213355;22;45600;-82
2023/08/23 03:12:21;;;;;;;;;5.67;5.00;;;;;22.03;57.66;101230.53;6212225;22;55953;-82
2023/08/23 03:14:46;;;;;;;;;2.00;2.00;;;;;22.02;57.67;101236.97;6213031;22;45269;-82
2023/08/23 03:17:13;;;;;;;;;0.67;0.67;;;;;22.02;57.96;101252.38;6213177;22;45227;-82
2023/08/23 03:19:38;;;;;;;;;0.67;0.67;;;;;21.86;57.92;101216.88;6213267;22;45375;-82
2023/08/23 03:22:03;;;;;;;;;1.00;1.00;;;;;21.84;58.23;101222.44;6212881;22;46537;-82
2023/08/23 03:24:30;;;;;;;;;2.00;2.00;;;;;21.91;58.20;101239.81;6212745;22;45255;-82
2023/08/23 03:26:55;;;;;;;;;1.00;1.00;;;;;21.53;58.33;101182.97;6211981;22;53392;-82
2023/08/23 03:29:21;;;;;;;;;1.00;1.00;;;;;21.78;58.22;101221.16;6211212;22;45506;-81
2023/08/23 03:31:46;;;;;;;;;2.33;1.33;;;;;21.78;58.38;101220.31;6212401;22;45186;-81
2023/08/23 03:34:11;;;;;;;;;1.33;1.33;;;;;21.69;58.28;101210.31;6212664;22;45304;-81
2023/08/23 03:36:36;;;;;;;;;1.67;1.67;;;;;21.71;58.56;101217.28;6211961;22;56026;-81
2023/08/23 03:39:03;;;;;;;;;3.33;3.33;;;;;21.70;58.68;101212.03;6213265;22;45159;-81
2023/08/23 03:41:28;;;;;;;;;2.00;2.00;;;;;21.48;58.75;101194.22;6212101;22;45977;-81
2023/08/23 03:43:53;;;;;;;;;1.00;1.00;;;;;21.66;58.90;101214.19;6210817;22;45546;-81
2023/08/23 03:46:23;;;;;;;;;3.00;2.00;;;;;21.52;59.60;101194.81;6212934;22;45108;-81
2023/08/23 03:48:49;;;;;;;;;0.67;0.67;;;;;21.49;58.90;101198.66;6212908;22;45436;-81
2023/08/23 03:51:14;;;;;;;;;1.00;1.00;;;;;21.61;59.35;101202.91;6212278;22;46113;-83
2023/08/23 03:53:39;;;;;;;;;3.67;1.67;;;;;21.54;59.16;101206.34;6212027;22;45235;-81
2023/08/23 03:56:05;;;;;;;;;1.00;1.00;;;;;21.58;59.37;101216.72;6213153;22;45415;-81
2023/08/23 03:58:30;;;;;;;;;1.33;1.33;;;;;21.57;59.20;101206.91;6212963;22;45319;-82
2023/08/23 04:00:55;;;;;;;;;1.67;1.67;;;;;21.49;59.20;101201.34;6213110;22;45242;-82
2023/08/23 04:03:20;;;;;;;;;2.67;2.67;;;;;21.62;59.35;101226.28;6211606;22;54754;-82
2023/08/23 04:05:46;;;;;;;;;3.33;2.33;;;;;21.56;59.60;101224.13;6214011;22;45191;-82
2023/08/23 04:08:13;;;;;;;;;4.00;2.00;;;;;21.59;59.52;101229.25;6213948;22;45581;-82
2023/08/23 04:10:38;;;;;;;;;3.67;3.33;;;;;21.46;59.76;101207.88;6213033;22;46188;-80
2023/08/23 04:13:04;;;;;;;;;3.00;3.00;;;;;21.51;59.55;101212.91;6187117;22;45190;-81
2023/08/23 04:15:29;;;;;;;;;1.67;1.67;;;;;21.32;59.69;101202.88;6214103;22;45169;-82
2023/08/23 04:17:54;;;;;;;;;3.67;3.00;;;;;21.48;60.10;101234.81;6214183;22;45500;-81
2023/08/23 04:20:20;;;;;;;;;2.00;2.00;;;;;21.38;60.34;101232.09;6186298;22;46390;-81
2023/08/23 04:22:45;;;;;;;;;2.67;2.00;;;;;21.34;60.44;101235.22;6213825;22;49913;-81
2023/08/23 04:25:11;;;;;;;;;3.33;2.67;;;;;21.25;60.94;101226.09;6214511;22;45357;-81
2023/08/23 04:27:37;;;;;;;;;1.67;1.67;;;;;21.23;60.69;101224.50;6214461;22;45501;-82
2023/08/23 04:30:06;;;;;;;;;3.00;3.00;;;;;21.21;61.06;101220.06;6213403;22;47482;-82
2023/08/23 04:32:32;;;;;;;;;0.67;0.67;;;;;21.19;60.92;101219.34;6213316;22;45253;-82
2023/08/23 04:34:58;;;;;;;;;2.67;1.67;;;;;21.09;60.85;101207.66;6213885;22;45233;-83
2023/08/23 04:37:23;;;;;;;;;1.67;1.67;;;;;21.11;61.21;101221.06;6213678;22;45460;-82
2023/08/23 04:39:48;;;;;;;;;2.00;2.00;;;;;21.03;61.34;101210.91;6213437;22;45958;-82
2023/08/23 04:42:14;;;;;;;;;2.00;2.00;;;;;21.01;61.48;101207.50;6213535;22;45200;-82
2023/08/23 04:44:39;;;;;;;;;2.33;2.33;;;;;21.12;61.70;101220.91;6213254;22;59618;-81
2023/08/23 04:47:04;;;;;;;;;2.00;2.00;;;;;21.12;61.59;101217.38;6213401;22;55666;-81
2023/08/23 04:49:30;;;;;;;;;6.33;2.00;;;;;21.14;61.48;101224.34;6186235;22;46812;-80
2023/08/23 04:51:55;;;;;;;;;1.67;1.67;;;;;21.09;61.96;101232.00;6213471;22;45186;-81
2023/08/23 04:54:20;;;;;;;;;1.00;1.00;;;;;20.94;61.99;101214.44;6213768;22;45223;-82
2023/08/23 04:56:46;;;;;;;;;1.67;1.67;;;;;21.06;61.93;101232.28;6213594;22;45498;-82
2023/08/23 04:59:11;;;;;;;;;2.33;2.33;;;;;21.08;61.99;101235.69;6212726;22;45360;-82
2023/08/23 05:01:36;;;;;;;;;3.33;3.33;;;;;20.92;62.17;101208.31;6213664;22;45345;-82
2023/08/23 05:04:01;;;;;;;;;1.67;1.67;;;;;20.95;62.08;101220.72;6213505;22;45488;-82
2023/08/23 05:06:27;;;;;;;;;3.00;3.00;;;;;21.00;62.38;101224.72;6213395;22;45449;-82
2023/08/23 05:08:52;;;;;;;;;2.00;2.00;;;;;20.83;62.19;101203.72;6212589;22;54197;-81
2023/08/23 05:11:17;;;;;;;;;2.33;2.00;;;;;21.03;62.51;101232.56;6212841;22;45378;-82
2023/08/23 05:13:43;;;;;;;;;13.33;9.67;;;;;20.87;62.50;101205.19;6213656;22;45243;-81
2023/08/23 05:16:08;;;;;;;;;7.33;6.33;;;;;21.01;62.56;101229.13;6213433;22;53683;-82
2023/08/23 05:18:33;;;;;;;;;2.67;2.67;;;;;20.90;62.48;101211.16;6213271;22;46168;-82
2023/08/23 05:20:59;;;;;;;;;3.67;3.33;;;;;21.07;62.48;101239.38;6213253;22;45295;-81
2023/08/23 05:23:25;;;;;;;;;5.00;3.67;;;;;20.99;62.67;101224.88;6186588;22;45266;-80
2023/08/23 05:25:52;;;;;;;;;2.00;1.67;;;;;21.06;62.47;101232.28;6186342;22;45853;-82
2023/08/23 05:28:21;;;;;;;;;3.67;2.33;;;;;21.03;62.57;101227.16;6185995;22;45461;-80
2023/08/23 05:30:47;;;;;;;;;3.00;2.67;;;;;21.05;62.63;101235.97;6186490;22;45865;-83
2023/08/23 05:33:12;;;;;;;;;2.67;2.00;;;;;20.93;62.50;101215.44;6214092;22;45249;-80
2023/08/23 05:35:41;;;;;;;;;2.33;2.33;;;;;20.96;62.50;101214.31;6214086;22;45470;-82
2023/08/23 05:38:07;;;;;;;;;4.00;2.33;;;;;21.03;62.61;101229.84;6185839;22;47201;-80
2023/08/23 05:40:32;;;;;;;;;3.00;2.00;;;;;21.12;62.44;101241.69;6185824;22;45361;-81
2023/08/23 05:42:58;;;;;;;;;3.00;3.00;;;;;21.15;62.21;101244.97;6212937;22;58792;-82
2023/08/23 05:45:26;;;;;;;;;3.00;3.00;;;;;21.17;62.20;101242.97;6213546;22;45498;-82
2023/08/23 05:47:54;;;;;;;;;2.67;2.67;;;;;21.21;62.13;101246.25;6212689;22;45936;-82
2023/08/23 05:50:21;;;;;;;;;4.67;4.00;;;;;21.24;62.12;101234.31;6212650;22;45282;-82
2023/08/23 05:52:46;;;;;;;;;2.00;2.00;;;;;21.13;61.91;101210.97;6212792;22;45297;-82
2023/08/23 05:55:12;;;;;;;;;2.00;2.00;;;;;21.37;61.92;101248.50;6213567;22;45199;-79
2023/08/23 05:57:37;;;;;;;;;2.33;2.33;;;;;21.45;61.64;101237.78;6213907;22;46039;-83
2023/08/23 06:00:03;;;;;;;;;3.00;3.00;;;;;21.45;61.88;101222.41;6212847;22;48148;-83
2023/08/23 06:02:29;;;;;;;;;2.67;2.00;;;;;21.47;61.59;101219.56;6186122;22;45293;-84
2023/08/23 06:04:54;;;;;;;;;3.00;1.67;;;;;21.56;61.29;101217.88;6186396;22;45209;-81
2023/08/23 06:07:19;;;;;;;;;2.33;2.00;;;;;21.66;61.07;101227.72;6212461;22;45360;-82
2023/08/23 06:09:45;;;;;;;;;4.33;3.00;;;;;21.72;60.77;101237.94;6211387;22;45252;-83
2023/08/23 06:12:11;;;;;;;;;2.33;2.33;;;;;21.82;60.04;101224.44;6186315;22;45745;-84
2023/08/23 06:14:36;;;;;;;;;2.00;2.00;;;;;21.94;60.23;101236.81;6214010;22;45458;-84
2023/08/23 06:17:01;;;;;;;;;2.67;1.00;;;;;22.00;59.85;101232.66;6213356;22;45925;-83
2023/08/23 06:19:26;;;;;;;;;3.67;1.67;;;;;22.04;59.27;101215.16;6212908;22;45251;-83
2023/08/23 06:21:52;;;;;;;;;6.33;2.67;;;;;22.10;59.41;101211.03;6213261;22;45331;-82
2023/08/23 06:24:17;;;;;;;;;3.00;3.00;;;;;22.03;59.17;101199.91;6212599;22;45320;-80
2023/08/23 06:26:44;;;;;;;;;2.00;2.00;;;;;22.23;59.12;101230.53;6184679;22;47774;-81
2023/08/23 06:29:09;;;;;;;;;2.00;2.00;;;;;22.26;58.65;101230.22;6211704;22;45383;-82
2023/08/23 06:31:34;;;;;;;;;3.00;3.00;;;;;22.22;58.85;101226.97;6212751;22;51093;-81
2023/08/23 06:34:00;;;;;;;;;2.00;2.00;;;;;22.26;58.78;101233.78;6213389;22;45575;-81
2023/08/23 06:36:26;;;;;;;;;2.33;2.33;;;;;22.22;59.40;101210.72;6212857;22;46282;-81
2023/08/23 06:38:51;;;;;;;;;2.00;2.00;;;;;22.27;58.12;101199.47;6212895;22;45194;-83
2023/08/23 06:41:17;;;;;;;;;5.00;3.67;;;;;22.49;58.34;101226.19;6186064;22;45285;-83
2023/08/23 06:43:43;;;;;;;;;3.00;3.00;;;;;22.57;57.68;101228.16;6213265;22;45594;-81
2023/08/23 06:46:08;;;;;;;;;5.00;3.33;;;;;22.56;57.97;101221.03;6212646;22;46322;-82
2023/08/23 06:48:34;;;;;;;;;2.33;2.33;;;;;22.69;57.94;101234.25;6212929;22;45179;-82
2023/08/23 06:51:02;;;;;;;;;2.00;2.00;;;;;22.61;57.25;101214.16;6213315;22;45618;-81
2023/08/23 06:53:28;;;;;;;;;3.33;3.33;;;;;22.70;57.81;101220.56;6213353;22;45376;-83
2023/08/23 06:55:54;;;;;;;;;3.33;2.00;;;;;22.87;57.23;101218.94;6212944;22;45526;-82
2023/08/23 06:58:19;;;;;;;;;2.00;2.00;;;;;23.05;56.76;101214.41;6213402;22;45327;-81
2023/08/23 07:00:46;;;;;;;;;4.00;4.00;;;;;23.14;56.68;101234.34;6213432;22;45641;-82
2023/08/23 07:03:11;;;;;;;;;2.67;2.67;;;;;22.97;56.80;101235.16;6213662;22;45278;-82
2023/08/23 07:05:36;;;;;;;;;3.33;3.33;;;;;23.01;57.20;101253.69;6211567;22;45214;-80
2023/08/23 07:08:02;;;;;;;;;5.00;4.00;;;;;22.93;56.98;101259.03;6213285;22;45123;-80
2023/08/23 07:10:29;;;;;;;;;2.00;2.00;;;;;22.86;57.12;101263.31;6185316;22;45362;-82
2023/08/23 07:12:55;;;;;;;;;3.00;3.00;;;;;22.98;57.29;101261.28;6213893;22;45296;-80
2023/08/23 07:15:20;;;;;;;;;3.00;3.00;;;;;22.89;57.03;101242.19;6216566;22;46607;-84
2023/08/23 07:17:46;;;;;;;;;7.00;3.00;;;;;22.98;56.84;101255.84;6214609;22;45228;-80
2023/08/23 07:20:13;;;;;;;;;2.00;2.00;;;;;22.93;57.32;101251.75;6215054;22;45275;-81
2023/08/23 07:22:39;;;;;;;;;2.67;1.67;;;;;22.81;57.35;101244.78;6214542;22;45506;-85
2023/08/23 07:25:05;;;;;;;;;6.00;3.33;;;;;22.85;57.95;101256.19;6213193;22;46073;-82
2023/08/23 07:27:30;;;;;;;;;2.33;2.00;;;;;22.90;57.50;101257.44;6214514;22;45740;-80
2023/08/23 07:29:56;;;;;;;;;3.00;3.00;;;;;22.92;57.27;101252.75;6214263;22;45323;-82
2023/08/23 07:32:22;;;;;;;;;4.00;3.00;;;;;23.06;56.81;101264.09;6216708;22;45302;-80
2023/08/23 07:34:47;;;;;;;;;2.50;2.50;;;;;23.14;57.14;101258.75;6193002;22;47800;-79
2023/08/23 07:37:12;;;;;;;;;5.00;3.00;;;;;23.07;56.65;101249.53;6226527;22;52489;-79
2023/08/23 07:39:38;;;;;;;;;2.00;2.00;;;;;23.15;56.91;101245.03;6233468;22;45091;-78
2023/08/23 07:42:03;;;;;;;;;5.33;3.00;;;;;23.31;56.61;101252.53;6228519;22;45164;-81
2023/08/23 07:44:28;;;;;;;;;4.00;4.00;;;;;23.32;56.54;101251.53;6228826;22;44945;-82
2023/08/23 07:46:54;;;;;;;;;4.00;2.50;;;;;23.37;56.47;101256.50;6231755;22;45213;-82
2023/08/23 07:49:20;;;;;;;;;6.00;6.00;;;;;23.34;56.64;101256.81;6225259;22;45094;-85
2023/08/23 07:51:45;;;;;;;;;0.00;0.00;;;;;23.40;56.25;101262.47;6227275;22;45578;-85
2023/08/23 07:54:11;;;;;;;;;11.00;11.00;;;;;23.47;56.39;101266.28;6222514;22;45166;-86
2023/08/23 07:56:37;;;;;;;;;4.50;2.00;;;;;23.60;55.82;101262.38;6218460;22;45467;-84
2023/08/23 07:59:02;;;;;;;;;5.75;4.00;;;;;23.59;55.70;101244.38;6219240;22;45240;-80
2023/08/23 08:01:28;;;;;;;;;5.75;3.00;;;;;23.54;55.95;101253.78;6218604;22;45257;-79
2023/08/23 08:03:53;;;;;;;;;4.00;4.00;;;;;23.48;55.97;101238.13;6219112;22;45387;-77
2023/08/23 08:06:19;;;;;;;;;4.33;4.33;;;;;23.59;56.31;101266.94;6216254;22;45275;-79
2023/08/23 08:08:45;;;;;;;;;3.75;3.50;;;;;23.57;56.00;101262.63;6217468;22;45718;-79
2023/08/23 08:11:11;;;;;;;;;6.75;2.00;;;;;23.50;56.65;101254.25;6218169;22;45437;-82
2023/08/23 08:13:37;;;;;;;;;7.00;3.00;;;;;23.57;56.52;101263.50;6217641;22;46047;-80
2023/08/23 08:16:09;;;;;;;;;5.75;4.00;;;;;23.72;56.35;101262.00;6190024;22;45273;-80
2023/08/23 08:18:35;;;;;;;;;4.25;4.25;;;;;23.77;55.46;101239.78;6187727;22;45923;-82
2023/08/23 08:21:00;;;;;;;;;4.00;4.00;;;;;23.89;55.92;101235.81;6213996;22;45324;-82
2023/08/23 08:23:25;;;;;;;;;3.75;3.75;;;;;24.06;55.67;101251.25;6215566;22;45403;-80
2023/08/23 08:25:51;;;;;;;;;3.25;3.00;;;;;24.01;55.31;101237.28;6217131;22;45305;-80
2023/08/23 08:28:16;;;;;;;;;4.25;3.50;;;;;24.06;55.00;101232.22;6220437;22;45276;-81
2023/08/23 08:30:42;;;;;;;;;5.50;5.00;;;;;24.18;55.01;101256.44;6218451;22;45284;-80
2023/08/23 08:33:07;;;;;;;;;11.00;6.75;;;;;24.09;54.88;101241.94;6215518;22;46010;-82
2023/08/23 08:35:32;;;;;;;;;7.25;4.25;;;;;24.23;55.17;101244.09;6220796;22;45280;-81
2023/08/23 08:37:58;;;;;;;;;5.25;4.25;;;;;24.33;55.25;101239.41;6220347;22;45707;-83
2023/08/23 08:40:23;;;;;;;;;6.25;5.00;;;;;24.38;54.42;101244.41;6219861;22;45138;-83
2023/08/23 08:42:49;;;;;;;;;6.50;5.00;;;;;24.54;54.58;101263.53;6221211;22;46229;-82
2023/08/23 08:45:15;;;;;;;;;4.50;3.00;;;;;24.51;53.73;101252.97;6215111;22;45213;-82
2023/08/23 08:47:42;;;;;;;;;11.00;6.50;;;;;24.69;53.74;101261.91;6221660;22;45158;-82
2023/08/23 08:50:08;;;;;;;;;3.00;3.00;;;;;24.63;53.59;101245.41;6216056;22;45438;-82
2023/08/23 08:52:36;;;;;;;;;3.00;3.00;;;;;24.69;54.10;101256.47;6216685;22;45493;-81
2023/08/23 08:55:03;;;;;;;;;6.00;5.75;;;;;24.85;53.83;101261.13;6223337;22;45573;-83
2023/08/23 08:57:30;;;;;;;;;12.75;6.75;;;;;24.92;53.57;101262.19;6199309;22;45341;-84
2023/08/23 08:59:58;;;;;;;;;8.25;5.00;;;;;25.03;53.21;101269.25;6219515;22;45158;-80
2023/08/23 09:02:26;;;;;;;;;8.75;5.00;;;;;25.06;53.01;101268.94;6188432;22;46517;-82
2023/08/23 09:04:52;;;;;;;;;6.00;4.00;;;;;25.20;52.92;101276.47;6217470;22;45426;-81
2023/08/23 09:07:17;;;;;;;;;4.75;4.75;;;;;25.39;52.69;101269.03;6193241;22;45301;-81
2023/08/23 09:09:45;;;;;;;;;5.00;3.00;;;;;25.19;52.50;101235.81;6246649;22;45204;-82
2023/08/23 09:12:11;;;;;;;;;13.25;6.25;;;;;25.44;52.26;101272.97;6243889;22;46218;-79
2023/08/23 09:14:38;;;;;;;;;9.75;7.75;;;;;25.54;52.48;101279.13;6243933;22;45275;-80
2023/08/23 09:17:04;;;;;;;;;9.75;6.00;;;;;25.65;52.11;101280.66;6245044;22;45306;-82
2023/08/23 09:19:33;;;;;;;;;22.75;14.75;;;;;25.75;51.75;101275.09;6245073;22;45279;-83
2023/08/23 09:21:59;;;;;;;;;6.00;4.50;;;;;25.76;51.34;101255.84;6244727;22;45309;-86
2023/08/23 09:24:24;;;;;;;;;5.75;5.25;;;;;25.95;51.44;101256.56;6246159;22;45286;-85
2023/08/23 09:26:49;;;;;;;;;6.00;4.50;;;;;25.92;51.06;101243.28;6246254;22;45319;-84
2023/08/23 09:29:15;;;;;;;;;4.25;4.25;;;;;25.73;50.82;101211.75;6246425;22;45299;-85
2023/08/23 09:31:40;;;;;;;;;5.00;5.00;;;;;25.91;50.85;101244.28;6244954;22;46498;-83
2023/08/23 09:34:16;;;;;;;;;5.50;4.50;;;;;26.18;50.75;101254.88;6245487;22;45281;-84
2023/08/23 09:36:41;;;;;;;;;3.00;3.00;;;;;26.34;50.86;101254.00;6245453;22;45276;-84
2023/08/23 09:39:09;;;;;;;;;6.25;4.50;;;;;26.45;49.78;101256.41;6218426;22;45288;-86
2023/08/23 09:41:43;;;;;;;;;6.50;5.50;;;;;26.52;49.99;101251.09;6243415;22;45510;-86
2023/08/23 09:44:09;;;;;;;;;3.00;3.00;;;;;26.55;49.95;101245.28;6244832;22;45403;-85
2023/08/23 09:46:36;;;;;;;;;5.50;5.50;;;;;26.72;49.49;101244.22;6217058;22;45347;-84
2023/08/23 09:49:06;;;;;;;;;4.25;3.75;;;;;26.83;48.68;101246.59;6245535;22;45350;-85
2023/08/23 09:51:36;;;;;;;;;6.25;4.00;;;;;26.68;48.77;101234.66;6243797;22;45465;-85
2023/08/23 09:54:10;;;;;;;;;7.60;4.80;;;;;26.93;48.05;101236.28;6243805;22;45601;-83
2023/08/23 09:56:36;;;;;;;;;6.00;4.75;;;;;27.10;47.38;101250.75;6244067;22;45278;-83
2023/08/23 09:59:02;;;;;;;;;6.00;4.00;;;;;27.25;47.63;101253.59;6218267;22;45572;-82
2023/08/23 10:01:28;;;;;;;;;5.00;4.75;;;;;27.29;47.06;101250.31;6246458;22;45838;-82
2023/08/23 10:03:53;;;;;;;;;6.75;6.00;;;;;27.32;47.42;101243.63;6247055;22;45169;-80
2023/08/23 10:06:21;;;;;;;;;5.50;5.50;;;;;27.62;47.06;101252.88;6245829;22;45156;-83
2023/08/23 10:08:46;;;;;;;;;4.00;3.60;;;;;27.65;47.30;101229.81;6222465;22;45464;-83
2023/08/23 10:11:13;;;;;;;;;6.50;6.50;;;;;27.78;46.51;101228.16;6215804;22;46513;-81
2023/08/23 10:13:40;;;;;;;;;7.00;5.60;;;;;27.79;46.79;101207.16;6215406;22;45367;-83
2023/08/23 10:16:07;;;;;;;;;7.40;6.00;;;;;28.06;46.11;101231.19;6216582;22;45262;-82
2023/08/23 10:18:34;;;;;;;;;18.00;18.00;;;;;28.25;45.68;101229.78;6218293;22;45605;-84
2023/08/23 10:21:02;;;;;;;;;5.00;5.00;;;;;28.27;45.78;101210.53;6216343;22;46427;-81
2023/08/23 10:23:29;;;;;;;;;6.00;4.20;;;;;28.35;45.77;101221.34;6216207;22;45377;-80
2023/08/23 10:25:54;;;;;;;;;7.20;5.80;;;;;28.35;45.40;101214.00;6215579;22;45290;-81
2023/08/23 10:28:20;;;;;;;;;6.75;6.75;;;;;28.46;44.65;101215.44;6216133;22;45339;-85
2023/08/23 10:30:49;;;;;;;;;6.00;4.75;;;;;28.49;45.26;101215.03;6216637;22;46401;-80
2023/08/23 10:33:16;;;;;;;;;6.80;4.60;;;;;28.54;44.60;101218.09;6212875;22;45309;-82
2023/08/23 10:35:46;;;;;;;;;7.00;6.60;;;;;28.50;44.97;101211.28;6186550;22;45364;-83
2023/08/23 10:38:12;;;;;;;;;4.20;4.20;;;;;28.59;44.66;101210.16;6213124;22;45311;-83
2023/08/23 10:40:40;;;;;;;;;4.75;4.75;;;;;28.68;44.15;101205.44;6213634;22;45973;-81
2023/08/23 10:43:17;;;;;;;;;5.00;5.00;;;;;28.76;43.99;101211.63;6186013;22;45226;-81
2023/08/23 10:45:55;;;;;;;;;7.00;5.20;;;;;28.85;43.75;101209.66;6213624;22;45733;-83
2023/08/23 10:48:23;;;;;;;;;6.75;5.50;;;;;28.79;44.31;101178.44;6215783;22;45422;-83
2023/08/23 10:50:49;;;;;;;;;3.60;3.60;;;;;29.10;44.05;101198.41;6187013;22;47225;-82
2023/08/23 10:53:16;;;;;;;;;8.25;7.00;;;;;29.13;43.74;101207.09;6187283;22;45198;-81
2023/08/23 10:55:41;;;;;;;;;5.60;5.60;;;;;29.33;43.71;101219.16;6215026;22;45689;-81
2023/08/23 10:58:07;;;;;;;;;8.00;6.50;;;;;29.49;43.20;101206.28;6214426;22;45313;-82
2023/08/23 11:00:32;;;;;;;;;9.25;6.25;;;;;29.64;42.75;101199.69;6214209;22;45535;-80
2023/08/23 11:02:58;;;;;;;;;5.75;4.50;;;;;29.87;42.43;101221.41;6187024;22;45309;-80
2023/08/23 11:05:24;;;;;;;;;6.75;5.00;;;;;29.95;42.16;101207.56;6215473;22;45307;-82
2023/08/23 11:07:50;;;;;;;;;5.00;5.00;;;;;30.15;41.56;101188.53;6215139;22;45572;-81
2023/08/23 11:10:15;;;;;;;;;8.20;6.00;;;;;30.53;41.22;101205.47;6213497;22;45407;-82
2023/08/23 11:12:41;;;;;;;;;6.00;6.00;;;;;30.80;40.56;101205.66;6215146;22;45279;-82
2023/08/23 11:15:07;;;;;;;;;7.00;7.00;;;;;31.10;40.41;101200.72;6216368;22;45492;-85
2023/08/23 11:17:32;;;;;;;;;6.25;6.25;;;;;31.35;40.00;101198.28;6187871;22;45406;-84
2023/08/23 11:19:58;;;;;;;;;7.25;6.50;;;;;31.59;39.52;101194.94;6216728;22;46587;-83